Thunder radar more information blitzortung!


Rain radar more information rain snow radar


Equipment we use:

Davis VP2

Weather Display

BareMetal


Nearby METAR Reports

   
CYAZ - Tofino, BC
Updated: 12-10-2018 17:00
NOT Current
Overcast  
Overcast  
   Wind: East 13 km/h
Wind: East 13 km/h
Temperature: 7°C
Wind Chill: 4°C
Dew Point: 6°C
Humidity: 93%
Barometer: 1019.3 hPa
Clouds: Overcast
Visibility: 16 km
Cloud details: Mostly Cloudy 914.4 m,
Overcast 2072.6 m
CYAZ 110100Z 09007KT 10SM BKN030 OVC068 07/06 A3010 RMK SC5AC3 LAST STFD OBS/NEXT 111500UTC SLP194
CYHE - Hope,BC
Updated: 12-11-2018 04:00
Light Rain, Mist, Overcast  
Light Rain, Mist, Overcast  
   Wind: varies 3.7 km/h
Wind: varies 3.7 km/h
Temperature: 2°C
Dew Point: 2°C
Humidity: 100%
Barometer: 1015.2 hPa
Clouds: Overcast
Visibility: 5 km
Cloud details: Overcast 1005.8 m
CYHE 111200Z AUTO VRB02KT 3SM -RA BR OVC033 02/02 A2998 RMK PCPN 0.8MM PAST HR SLP154
CYYT - St. John's, NL
Updated: 12-11-2018 04:00
Mostly Cloudy  
Mostly Cloudy  
   Wind: West 18.5 km/h
Wind: West 18.5 km/h
Temperature: -7°C
Wind Chill: -14°C
Dew Point: -9°C
Humidity: 86%
Barometer: 1002.4 hPa
Clouds: Mostly Cloudy
Visibility: 24 km
Cloud details: Few Clouds 609.6 m,
Few Clouds 1524 m,
Partly Cloudy 2895.6 m,
Mostly Cloudy 6705.6 m
CYYT 111200Z 28010KT 15SM FEW020 FEW050 SCT095 BKN220 M07/M09 A2960 RMK CU1SC1AC1CI3 SLP035

Script developed by  Saratoga-weather.org Adapted for the template by  Weerstation Leuven